Time;durP1;ratioP1;P1;durP2;ratioP2;P2;SDS_P1;SDS_P2;PMS_P1;PMS_P2;Temp;Humidity;BMP_temperature;BMP_pressure;BME280_temperature;BME280_humidity;BME280_pressure;Samples;Min_cycle;Max_cycle;Signal;HPM_P1;HPM_P2
2022/05/21 00:00:24;;;;;;;23.50;8.70;;;9.70;99.90;;;;;;5057594;28;20089;-82
2022/05/21 00:02:50;;;;;;;20.33;8.90;;;9.70;99.90;;;;;;5057244;28;20036;-83
2022/05/21 00:05:18;;;;;;;16.35;7.47;;;9.70;99.90;;;;;;5057195;28;20037;-82
2022/05/21 00:07:44;;;;;;;21.92;7.72;;;9.60;99.90;;;;;;5057069;28;20044;-83
2022/05/21 00:10:13;;;;;;;23.95;9.50;;;9.70;99.90;;;;;;5057325;28;20029;-82
2022/05/21 00:12:39;;;;;;;20.88;8.98;;;9.70;99.90;;;;;;5056300;28;20029;-81
2022/05/21 00:15:08;;;;;;;28.17;10.98;;;9.70;99.90;;;;;;5036194;28;20049;-81
2022/05/21 00:17:34;;;;;;;29.65;10.15;;;9.70;99.90;;;;;;5038167;28;20041;-81
2022/05/21 00:20:00;;;;;;;25.30;11.15;;;9.70;99.90;;;;;;5036341;28;20037;-81
2022/05/21 00:22:26;;;;;;;29.05;11.27;;;9.80;99.90;;;;;;5036337;28;20049;-82
2022/05/21 00:24:53;;;;;;;29.85;12.75;;;9.80;99.90;;;;;;5041491;28;20452;-81
2022/05/21 00:27:18;;;;;;;30.30;12.18;;;9.70;99.90;;;;;;5045607;28;20045;-81
2022/05/21 00:29:44;;;;;;;35.65;14.93;;;9.80;99.90;;;;;;5045363;28;20044;-81
2022/05/21 00:32:10;;;;;;;33.47;15.35;;;9.90;99.90;;;;;;5044649;28;20045;-81
2022/05/21 00:34:36;;;;;;;41.50;16.35;;;9.90;99.90;;;;;;5040584;28;20117;-81
2022/05/21 00:37:02;;;;;;;40.67;16.30;;;10.00;99.90;;;;;;5039888;28;20092;-81
2022/05/21 00:39:28;;;;;;;38.58;18.13;;;10.10;99.90;;;;;;5042201;28;20048;-80
2022/05/21 00:41:54;;;;;;;43.10;19.02;;;10.00;99.90;;;;;;5039398;28;20043;-81
2022/05/21 00:44:20;;;;;;;43.88;16.85;;;10.00;99.90;;;;;;5037820;28;20493;-81
2022/05/21 00:46:48;;;;;;;42.83;19.08;;;10.00;99.90;;;;;;5039335;28;20417;-82
2022/05/21 00:49:13;;;;;;;41.53;19.20;;;10.00;99.90;;;;;;5040921;28;20049;-81
2022/05/21 00:51:52;;;;;;;41.45;18.75;;;10.20;99.90;;;;;;5040073;28;20126;-81
2022/05/21 00:54:22;;;;;;;42.75;18.55;;;10.10;99.90;;;;;;5040289;28;20064;-82
2022/05/21 00:56:57;;;;;;;35.35;17.63;;;10.10;99.90;;;;;;5055773;28;20053;-81
2022/05/21 01:02:08;;;;;;;43.80;18.10;;;10.10;99.90;;;;;;5038066;28;20064;-81
2022/05/21 01:04:36;;;;;;;42.50;20.88;;;10.10;99.90;;;;;;5038971;28;20041;-82
2022/05/21 01:07:03;;;;;;;41.92;18.10;;;10.20;99.90;;;;;;5038785;28;20485;-81
2022/05/21 01:09:30;;;;;;;39.92;19.50;;;10.30;99.90;;;;;;5055247;28;20041;-82
2022/05/21 01:11:56;;;;;;;41.33;20.77;;;11.00;99.90;;;;;;5038076;28;20124;-81
2022/05/21 01:14:22;;;;;;;39.35;19.83;;;10.30;99.90;;;;;;5039900;28;20523;-81
2022/05/21 01:16:50;;;;;;;38.50;19.23;;;10.30;99.90;;;;;;5039543;28;20537;-81
2022/05/21 01:19:16;;;;;;;44.28;21.02;;;10.30;99.90;;;;;;5039388;28;20075;-82
2022/05/21 01:21:45;;;;;;;47.00;23.00;;;10.30;99.90;;;;;;5038016;28;20084;-81
2022/05/21 01:24:12;;;;;;;46.40;22.20;;;10.40;99.90;;;;;;5039732;28;20045;-81
2022/05/21 01:26:39;;;;;;;47.30;22.10;;;10.40;99.90;;;;;;5038493;28;20100;-82
2022/05/21 01:29:17;;;;;;;51.80;23.88;;;10.40;99.90;;;;;;5039695;28;20047;-80
2022/05/21 01:31:51;;;;;;;50.20;22.45;;;10.50;99.90;;;;;;5038769;28;20048;-82
2022/05/21 01:34:17;;;;;;;56.53;26.88;;;10.50;99.90;;;;;;5038777;28;20431;-81
2022/05/21 01:36:43;;;;;;;66.65;28.98;;;10.60;99.90;;;;;;5038153;28;20049;-82
2022/05/21 01:39:09;;;;;;;65.68;29.23;;;10.60;99.90;;;;;;5053788;28;20124;-82
2022/05/21 01:41:34;;;;;;;70.28;29.60;;;10.60;99.90;;;;;;5038276;28;20052;-81
2022/05/21 01:46:44;;;;;;;73.80;32.70;;;10.70;99.90;;;;;;5038864;28;20140;-82
2022/05/21 01:49:09;;;;;;;77.63;33.42;;;10.70;99.90;;;;;;5037780;28;20073;-82
2022/05/21 01:51:35;;;;;;;72.00;34.20;;;10.70;99.90;;;;;;5036341;28;20501;-81
2022/05/21 01:54:00;;;;;;;78.38;33.42;;;10.90;99.90;;;;;;5037834;28;20046;-82
2022/05/21 01:56:26;;;;;;;84.63;36.50;;;10.90;99.90;;;;;;5037637;28;20095;-82
2022/05/21 02:01:28;;;;;;;98.75;38.45;;;11.00;99.90;;;;;;4969318;22;20429;-80
2022/05/21 02:03:53;;;;;;;104.00;41.33;;;11.00;99.90;;;;;;5034116;28;20057;-82
2022/05/21 02:06:19;;;;;;;103.75;41.95;;;11.00;99.90;;;;;;5034688;28;20410;-80
2022/05/21 02:08:45;;;;;;;100.50;40.40;;;11.10;99.90;;;;;;5035179;28;20045;-80
2022/05/21 02:11:10;;;;;;;112.88;43.60;;;11.10;99.90;;;;;;5036262;28;20042;-80
2022/05/21 02:13:36;;;;;;;103.20;44.13;;;11.20;99.90;;;;;;5036771;28;20052;-80
2022/05/21 02:16:02;;;;;;;102.45;41.38;;;11.20;99.90;;;;;;5036617;28;20041;-80
2022/05/21 02:18:28;;;;;;;98.88;40.70;;;11.20;99.90;;;;;;5037143;28;20045;-80
2022/05/21 02:20:54;;;;;;;113.35;41.38;;;11.30;99.90;;;;;;5037287;28;20489;-80
2022/05/21 02:23:20;;;;;;;96.78;42.65;;;11.30;99.90;;;;;;5037403;28;20056;-80
2022/05/21 02:25:46;;;;;;;87.75;40.85;;;11.30;99.90;;;;;;5036582;28;20049;-80
2022/05/21 02:28:12;;;;;;;96.75;41.30;;;11.40;99.90;;;;;;5037149;28;20037;-81
2022/05/21 02:30:39;;;;;;;92.32;41.00;;;11.40;99.90;;;;;;5036432;28;20069;-81
2022/05/21 02:33:05;;;;;;;94.80;41.15;;;11.50;99.90;;;;;;5035774;28;20071;-80
2022/05/21 02:35:30;;;;;;;107.97;46.15;;;11.50;99.90;;;;;;5031329;28;20041;-80
2022/05/21 02:40:40;;;;;;;82.10;39.20;;;11.60;99.90;;;;;;5024985;28;20437;-80
2022/05/21 02:43:06;;;;;;;84.72;38.85;;;11.60;99.90;;;;;;5035877;28;20044;-80
2022/05/21 02:45:31;;;;;;;87.15;37.17;;;11.60;99.90;;;;;;5017681;28;20430;-80
2022/05/21 02:47:57;;;;;;;75.05;36.00;;;11.70;99.90;;;;;;5033626;28;20041;-80
2022/05/21 02:50:32;;;;;;;68.70;34.72;;;11.70;99.90;;;;;;5035831;28;20112;-80
2022/05/21 02:52:59;;;;;;;71.68;35.25;;;11.70;99.90;;;;;;5035848;28;20037;-80
2022/05/21 02:55:25;;;;;;;72.50;34.28;;;11.80;99.90;;;;;;5035887;28;20045;-81
2022/05/21 02:57:50;;;;;;;62.72;29.13;;;11.80;99.90;;;;;;5035196;28;20045;-81
2022/05/21 03:00:19;;;;;;;69.95;31.25;;;11.80;99.90;;;;;;5035205;28;20505;-80
2022/05/21 03:02:45;;;;;;;68.65;33.75;;;11.80;99.90;;;;;;5035510;28;20053;-80
2022/05/21 03:05:12;;;;;;;77.45;32.95;;;11.70;99.90;;;;;;5035696;28;20085;-80
2022/05/21 03:07:43;;;;;;;62.50;30.70;;;11.80;99.90;;;;;;5035400;28;20049;-80
2022/05/21 03:10:23;;;;;;;76.25;33.17;;;11.80;99.90;;;;;;5035094;28;20037;-81
2022/05/21 03:12:55;;;;;;;69.72;29.80;;;11.80;99.90;;;;;;5035273;28;20045;-80
2022/05/21 03:15:33;;;;;;;57.75;28.10;;;11.90;99.90;;;;;;5034716;28;20447;-80
2022/05/21 03:18:04;;;;;;;56.00;27.65;;;12.00;99.90;;;;;;5035311;28;20136;-81
2022/05/21 03:20:29;;;;;;;60.40;28.10;;;12.00;99.90;;;;;;5033700;28;20115;-80
2022/05/21 03:22:55;;;;;;;59.65;25.95;;;12.00;99.90;;;;;;5034951;28;20497;-80
2022/05/21 03:25:20;;;;;;;51.00;24.27;;;12.00;99.90;;;;;;5035255;28;20046;-80
2022/05/21 03:27:46;;;;;;;60.97;26.00;;;12.00;99.90;;;;;;5034926;28;20034;-80
2022/05/21 03:30:15;;;;;;;58.05;26.95;;;12.00;99.90;;;;;;5035239;28;20037;-81
2022/05/21 03:32:41;;;;;;;55.45;25.67;;;12.00;99.90;;;;;;5035095;28;20046;-81
2022/05/21 03:35:08;;;;;;;51.17;25.55;;;12.00;99.90;;;;;;5034906;28;20044;-81
2022/05/21 03:37:36;;;;;;;49.35;23.83;;;12.00;99.90;;;;;;5035024;28;20084;-81
2022/05/21 03:40:04;;;;;;;42.95;20.40;;;12.10;99.90;;;;;;5033071;28;20041;-80
2022/05/21 03:42:29;;;;;;;51.60;22.60;;;12.10;99.90;;;;;;5034488;28;20060;-81
2022/05/21 03:44:55;;;;;;;46.58;22.02;;;12.20;99.90;;;;;;5033540;28;20037;-81
2022/05/21 03:47:20;;;;;;;46.13;20.25;;;12.20;99.90;;;;;;5035029;28;20049;-81
2022/05/21 03:49:46;;;;;;;40.15;18.48;;;12.20;99.90;;;;;;5022794;28;20052;-81
2022/05/21 03:52:11;;;;;;;43.83;17.00;;;12.50;99.90;;;;;;5033628;28;20037;-80
2022/05/21 03:54:37;;;;;;;39.20;17.88;;;12.30;99.90;;;;;;5034667;28;20033;-81
2022/05/21 03:57:04;;;;;;;43.50;17.83;;;12.30;99.90;;;;;;5034417;28;20103;-81
2022/05/21 03:59:30;;;;;;;43.10;17.65;;;12.40;99.90;;;;;;5033441;28;20456;-81
2022/05/21 04:01:56;;;;;;;37.70;15.80;;;12.30;99.90;;;;;;5034312;28;20046;-81
2022/05/21 04:04:21;;;;;;;46.40;16.35;;;12.30;99.90;;;;;;5034220;28;20042;-81
2022/05/21 04:06:47;;;;;;;43.47;15.57;;;12.30;99.90;;;;;;5034272;28;20124;-80
2022/05/21 04:09:14;;;;;;;36.13;14.15;;;12.30;99.90;;;;;;5033039;28;20124;-80
2022/05/21 04:11:40;;;;;;;40.83;14.95;;;12.30;99.90;;;;;;5032972;28;20056;-80
2022/05/21 04:14:07;;;;;;;28.80;11.50;;;12.30;99.90;;;;;;5032889;28;20041;-80
2022/05/21 04:16:33;;;;;;;35.95;12.13;;;12.30;99.90;;;;;;5033045;28;20053;-80
2022/05/21 04:18:59;;;;;;;33.05;9.65;;;12.30;99.90;;;;;;5032702;28;20048;-80
2022/05/21 04:21:26;;;;;;;39.20;10.05;;;12.30;99.90;;;;;;5033431;28;20050;-80
2022/05/21 04:23:52;;;;;;;22.85;8.10;;;12.40;99.90;;;;;;5033617;28;20050;-79
2022/05/21 04:26:17;;;;;;;32.00;8.48;;;12.40;99.90;;;;;;5033085;28;20053;-80
2022/05/21 04:28:43;;;;;;;33.83;9.02;;;12.40;99.90;;;;;;5033366;28;20482;-80
2022/05/21 04:31:09;;;;;;;25.48;8.48;;;12.40;99.90;;;;;;5032895;28;20096;-79
2022/05/21 04:33:34;;;;;;;37.67;9.07;;;12.40;99.90;;;;;;5032589;28;20038;-80
2022/05/21 04:36:18;;;;;;;27.00;8.30;;;12.30;99.90;;;;;;5032433;28;20128;-79
2022/05/21 04:38:44;;;;;;;23.70;6.82;;;12.40;99.90;;;;;;5033010;28;20050;-80
2022/05/21 04:41:10;;;;;;;30.25;7.18;;;12.40;99.90;;;;;;5032999;28;20049;-81
2022/05/21 04:43:36;;;;;;;33.97;8.65;;;12.50;99.90;;;;;;5032989;28;20041;-80
2022/05/21 04:46:02;;;;;;;21.48;6.57;;;12.40;99.90;;;;;;5032341;28;20080;-81
2022/05/21 04:48:28;;;;;;;20.17;6.38;;;12.50;99.90;;;;;;5032868;28;20107;-80
2022/05/21 04:51:02;;;;;;;20.88;5.80;;;12.40;99.90;;;;;;5033320;28;20502;-79
2022/05/21 04:53:28;;;;;;;38.00;6.43;;;12.40;99.90;;;;;;5033233;28;20048;-79
2022/05/21 04:55:55;;;;;;;20.27;4.88;;;12.30;99.90;;;;;;5032926;28;20046;-80
2022/05/21 04:58:20;;;;;;;22.15;6.05;;;12.30;99.90;;;;;;5032470;28;20045;-80
2022/05/21 05:00:46;;;;;;;19.67;5.72;;;12.20;99.90;;;;;;5032253;28;20064;-80
2022/05/21 05:03:14;;;;;;;15.90;4.80;;;12.10;99.90;;;;;;5031828;28;20060;-79
2022/05/21 05:05:41;;;;;;;20.70;5.05;;;12.10;99.90;;;;;;5032880;28;20063;-80
2022/05/21 05:08:07;;;;;;;19.75;5.28;;;12.30;99.90;;;;;;5031084;28;20053;-80
2022/05/21 05:10:36;;;;;;;18.15;5.15;;;12.30;99.90;;;;;;5031129;28;20045;-80
2022/05/21 05:13:03;;;;;;;17.80;5.13;;;12.50;99.90;;;;;;5035658;28;20050;-80
2022/05/21 05:15:29;;;;;;;13.80;4.82;;;13.30;99.90;;;;;;5034836;28;20111;-80
2022/05/21 05:18:07;;;;;;;15.10;3.67;;;13.60;99.90;;;;;;5036573;28;20053;-80
2022/05/21 05:20:34;;;;;;;17.90;3.95;;;13.60;99.90;;;;;;5034697;28;20045;-80
2022/05/21 05:23:00;;;;;;;16.05;3.65;;;13.50;99.90;;;;;;5036218;28;20041;-81
2022/05/21 05:25:26;;;;;;;25.30;4.47;;;13.50;99.90;;;;;;5035632;28;20573;-80
2022/05/21 05:27:51;;;;;;;16.80;3.13;;;13.60;99.90;;;;;;5036504;28;20041;-80
2022/05/21 05:30:20;;;;;;;16.42;3.20;;;13.50;99.90;;;;;;5036441;28;20452;-81
2022/05/21 05:32:45;;;;;;;16.67;4.40;;;13.30;99.90;;;;;;5036272;28;20120;-81
2022/05/21 05:35:12;;;;;;;9.13;3.33;;;13.10;99.90;;;;;;5036060;28;20128;-81
2022/05/21 05:37:39;;;;;;;17.80;3.80;;;13.00;99.90;;;;;;5035756;28;20505;-80
2022/05/21 05:40:07;;;;;;;21.25;3.97;;;13.00;99.90;;;;;;5035829;28;20406;-80
2022/05/21 05:42:37;;;;;;;17.33;3.80;;;12.90;99.90;;;;;;5035911;28;20156;-81
2022/05/21 05:45:04;;;;;;;14.30;4.00;;;12.80;99.90;;;;;;5035216;28;20064;-81
2022/05/21 05:47:31;;;;;;;22.35;4.47;;;12.80;99.90;;;;;;5035993;28;20083;-80
2022/05/21 05:49:57;;;;;;;9.90;3.47;;;12.80;99.90;;;;;;5034732;28;20045;-81
2022/05/21 05:52:23;;;;;;;25.77;4.50;;;12.90;99.90;;;;;;5034828;28;20551;-81
2022/05/21 05:54:49;;;;;;;14.80;3.72;;;13.00;99.90;;;;;;5035158;28;20084;-81
2022/05/21 05:57:15;;;;;;;16.45;3.38;;;13.10;99.90;;;;;;5035625;28;20124;-81
2022/05/21 05:59:49;;;;;;;18.27;3.45;;;13.00;99.90;;;;;;5035263;28;20320;-81
2022/05/21 06:05:07;;;;;;;12.32;3.28;;;13.30;99.90;;;;;;5033710;28;20053;-82
2022/05/21 06:07:33;;;;;;;21.42;4.82;;;13.60;99.90;;;;;;5034562;28;20529;-81
2022/05/21 06:10:01;;;;;;;12.02;2.90;;;13.60;99.90;;;;;;5034864;28;20045;-81
2022/05/21 06:12:27;;;;;;;10.57;3.30;;;13.70;99.90;;;;;;5034968;28;20037;-81
2022/05/21 06:14:53;;;;;;;17.30;3.58;;;13.70;99.90;;;;;;5024146;28;20056;-82
2022/05/21 06:17:19;;;;;;;13.80;2.63;;;13.60;99.90;;;;;;5024303;28;20041;-82
2022/05/21 06:19:45;;;;;;;9.60;3.35;;;13.50;99.90;;;;;;5021420;28;20441;-81
2022/05/21 06:22:10;;;;;;;18.38;3.42;;;13.50;99.90;;;;;;5034159;28;20116;-81
2022/05/21 06:24:36;;;;;;;12.65;3.25;;;13.80;99.90;;;;;;5020002;28;20033;-81
2022/05/21 06:27:05;;;;;;;13.25;2.83;;;14.20;99.90;;;;;;5028941;28;20052;-81
2022/05/21 06:29:31;;;;;;;14.02;2.45;;;14.30;99.90;;;;;;5032127;28;20037;-81
2022/05/21 06:31:57;;;;;;;12.18;3.42;;;14.30;99.90;;;;;;5029097;28;20045;-81
2022/05/21 06:34:23;;;;;;;18.27;3.60;;;14.40;99.90;;;;;;5025803;28;20042;-81
2022/05/21 06:36:49;;;;;;;12.80;3.10;;;14.60;99.90;;;;;;5022814;28;20038;-81
2022/05/21 06:39:15;;;;;;;14.77;3.10;;;15.00;99.90;;;;;;5024612;28;20080;-81
2022/05/21 06:41:41;;;;;;;13.55;2.95;;;15.10;99.90;;;;;;5031690;28;20050;-81
2022/05/21 06:44:07;;;;;;;15.43;2.92;;;15.40;99.90;;;;;;5029882;28;20060;-81
2022/05/21 06:46:33;;;;;;;16.40;4.30;;;15.30;99.90;;;;;;5025294;28;20493;-81
2022/05/21 06:48:59;;;;;;;14.55;2.92;;;15.40;99.90;;;;;;5030320;28;20038;-81
2022/05/21 06:51:24;;;;;;;13.38;2.38;;;16.10;99.90;;;;;;5029218;28;20041;-81
2022/05/21 06:53:50;;;;;;;12.07;2.58;;;17.10;99.90;;;;;;5028158;28;20555;-81
2022/05/21 06:56:16;;;;;;;15.30;3.58;;;17.30;99.90;;;;;;5027951;28;20121;-82
2022/05/21 06:58:43;;;;;;;9.27;2.08;;;17.80;99.90;;;;;;5019891;28;20042;-82
2022/05/21 07:01:09;;;;;;;10.77;2.15;;;17.70;99.90;;;;;;5019060;28;20085;-82
2022/05/21 07:03:35;;;;;;;8.43;1.90;;;17.60;99.90;;;;;;5028283;28;20045;-82
2022/05/21 07:08:45;;;;;;;11.68;2.58;;;17.70;99.90;;;;;;5029919;28;20041;-80
2022/05/21 07:11:11;;;;;;;13.10;2.60;;;17.20;99.90;;;;;;5031318;28;20037;-80
2022/05/21 07:13:37;;;;;;;9.20;2.58;;;16.80;99.90;;;;;;5033574;28;20042;-80
2022/05/21 07:16:02;;;;;;;9.85;3.05;;;16.70;99.90;;;;;;5033803;28;20061;-80
2022/05/21 07:18:28;;;;;;;12.52;2.58;;;17.40;99.90;;;;;;5034214;28;20042;-80
2022/05/21 07:20:55;;;;;;;10.23;1.95;;;17.70;99.90;;;;;;5032364;28;20033;-81
2022/05/21 07:23:23;;;;;;;9.43;1.80;;;17.80;99.90;;;;;;5018171;28;20038;-81
2022/05/21 07:25:49;;;;;;;25.02;3.15;;;17.80;99.90;;;;;;5027197;28;20489;-80
2022/05/21 07:28:15;;;;;;;10.35;2.00;;;18.40;99.90;;;;;;5018679;28;20037;-80
2022/05/21 07:30:43;;;;;;;14.50;2.25;;;18.60;99.90;;;;;;5023449;28;20049;-81
2022/05/21 07:33:11;;;;;;;14.30;2.38;;;18.30;99.90;;;;;;5028478;28;20073;-81
2022/05/21 07:35:37;;;;;;;10.23;2.42;;;18.10;99.90;;;;;;5025636;28;20397;-82
2022/05/21 07:38:08;;;;;;;11.10;2.85;;;18.00;99.90;;;;;;5024675;28;20038;-80
2022/05/21 07:40:35;;;;;;;11.80;2.72;;;17.90;99.90;;;;;;5021767;28;20493;-80
2022/05/21 07:43:13;;;;;;;15.75;2.83;;;18.10;99.90;;;;;;5029899;28;20426;-79
2022/05/21 07:45:41;;;;;;;11.63;2.42;;;18.30;99.90;;;;;;5029777;28;20041;-79
2022/05/21 07:48:09;;;;;;;11.80;2.53;;;17.90;99.90;;;;;;5029956;28;20112;-79
2022/05/21 07:50:36;;;;;;;14.77;2.67;;;17.40;99.90;;;;;;5030356;28;20049;-79
2022/05/21 07:53:02;;;;;;;10.85;2.25;;;16.80;99.90;;;;;;5029423;28;20506;-79
2022/05/21 07:55:28;;;;;;;13.45;2.47;;;17.20;99.90;;;;;;5029863;28;20064;-79
2022/05/21 07:57:53;;;;;;;19.67;2.90;;;17.50;99.90;;;;;;5029964;28;20048;-81
2022/05/21 08:00:19;;;;;;;13.63;3.38;;;17.60;99.90;;;;;;5024955;28;20049;-81
2022/05/21 08:02:45;;;;;;;10.38;2.08;;;17.70;99.90;;;;;;5018816;28;20414;-81
2022/05/21 08:05:12;;;;;;;14.65;2.70;;;17.60;99.90;;;;;;5023542;28;20037;-81
2022/05/21 08:07:38;;;;;;;10.73;1.98;;;18.20;99.90;;;;;;5020542;28;20107;-81
2022/05/21 08:10:05;;;;;;;12.10;2.42;;;18.60;99.90;;;;;;5024930;28;20486;-81
2022/05/21 08:12:31;;;;;;;12.13;2.65;;;19.00;99.90;;;;;;5021011;28;20489;-81
2022/05/21 08:14:56;;;;;;;9.57;1.65;;;19.80;90.50;;;;;;5019127;28;20122;-82
2022/05/21 08:17:22;;;;;;;14.68;3.80;;;19.40;85.70;;;;;;5022120;28;20077;-82
2022/05/21 08:19:47;;;;;;;14.10;2.55;;;19.20;83.50;;;;;;5022105;28;20095;-82
2022/05/21 08:27:42;;;;;;;12.00;2.10;;;17.40;96.50;;;;;;5024096;28;20072;-81
2022/05/21 08:30:08;;;;;;;12.35;2.33;;;17.30;99.90;;;;;;5022017;28;20495;-82
2022/05/21 08:32:34;;;;;;;12.50;2.63;;;18.10;99.90;;;;;;5022197;28;20034;-82
2022/05/21 08:35:00;;;;;;;10.10;2.45;;;19.20;76.80;;;;;;5026802;28;20505;-82
2022/05/21 08:37:27;;;;;;;8.60;2.47;;;20.00;58.90;;;;;;5015363;28;20091;-82
2022/05/21 08:39:53;;;;;;;9.68;2.38;;;19.70;60.90;;;;;;5025993;28;20057;-82
2022/05/21 08:42:45;;;;;;;10.10;2.47;;;18.90;68.80;;;;;;5017163;28;20544;-81
2022/05/21 08:45:26;;;;;;;11.98;3.25;;;19.10;74.00;;;;;;5024666;28;20049;-82
2022/05/21 08:48:03;;;;;;;14.10;2.70;;;19.80;55.40;;;;;;5025187;28;20055;-82
2022/05/21 08:50:34;;;;;;;8.93;2.80;;;19.40;59.70;;;;;;5023232;28;20861;-82
2022/05/21 08:53:18;;;;;;;8.45;2.45;;;18.70;64.30;;;;;;5024817;28;20104;-82
2022/05/21 08:55:49;;;;;;;12.63;3.30;;;18.90;66.40;;;;;;5022791;28;20445;-82
2022/05/21 08:58:40;;;;;;;15.82;2.65;;;20.10;55.60;;;;;;5023665;28;20108;-82
2022/05/21 09:01:09;;;;;;;13.10;2.67;;;20.90;43.30;;;;;;5023868;28;20514;-79
2022/05/21 09:03:34;;;;;;;14.35;3.15;;;21.40;34.10;;;;;;5021546;28;20096;-80
2022/05/21 09:06:18;;;;;;;11.00;2.38;;;21.60;28.80;;;;;;5026758;28;20050;-80
2022/05/21 09:09:02;;;;;;;10.38;2.55;;;21.10;22.70;;;;;;5020309;28;20042;-80
2022/05/21 09:11:40;;;;;;;11.68;2.85;;;20.50;28.80;;;;;;5020265;28;20045;-79
2022/05/21 09:14:21;;;;;;;7.85;2.28;;;19.30;40.10;;;;;;5017394;28;20096;-79
2022/05/21 09:16:54;;;;;;;12.32;2.70;;;18.70;54.00;;;;;;5022816;28;20050;-79
2022/05/21 09:19:25;;;;;;;10.20;1.85;;;18.70;61.50;;;;;;5022575;28;20605;-79
2022/05/21 09:21:59;;;;;;;7.78;2.47;;;18.80;64.00;;;;;;5024220;28;20060;-79
2022/05/21 09:24:45;;;;;;;9.38;2.20;;;18.50;66.90;;;;;;5024810;28;20038;-79
2022/05/21 09:27:33;;;;;;;9.05;2.55;;;18.90;67.40;;;;;;5004497;28;20510;-79
2022/05/21 09:30:14;;;;;;;9.10;1.98;;;20.20;52.90;;;;;;5024419;28;20053;-80
2022/05/21 09:32:46;;;;;;;8.48;1.85;;;20.30;46.10;;;;;;5019528;28;20499;-80
2022/05/21 09:35:17;;;;;;;7.78;1.92;;;20.60;36.50;;;;;;5023381;28;20052;-80
2022/05/21 09:37:44;;;;;;;9.25;1.80;;;20.50;29.80;;;;;;5021777;28;20056;-79
2022/05/21 09:40:45;;;;;;;8.75;1.85;;;20.20;37.70;;;;;;5028142;28;20038;-79
2022/05/21 09:46:27;;;;;;;5.47;1.73;;;19.90;46.70;;;;;;5023565;28;20076;-79
2022/05/21 09:48:55;;;;;;;8.50;2.40;;;20.00;43.10;;;;;;5023563;28;20138;-80
2022/05/21 09:51:22;;;;;;;11.45;2.60;;;20.00;41.30;;;;;;5020602;28;20085;-79
2022/05/21 09:53:48;;;;;;;8.68;2.00;;;19.70;37.90;;;;;;5026470;28;20469;-80
2022/05/21 09:56:21;;;;;;;12.23;2.40;;;19.20;45.30;;;;;;5019813;28;20156;-80
2022/05/21 09:58:50;;;;;;;11.38;2.60;;;18.90;60.70;;;;;;5023784;28;20045;-80
2022/05/21 10:01:32;;;;;;;9.93;2.13;;;19.20;58.10;;;;;;5027345;28;20095;-80
2022/05/21 10:04:00;;;;;;;7.82;1.63;;;18.90;52.90;;;;;;5023534;28;20041;-80
2022/05/21 10:06:34;;;;;;;10.80;1.80;;;18.70;56.90;;;;;;5018523;28;20408;-80
2022/05/21 10:11:57;;;;;;;15.98;3.47;;;18.10;63.20;;;;;;5016314;28;20057;-80
2022/05/21 10:14:30;;;;;;;13.43;2.38;;;18.40;62.10;;;;;;5026452;28;20048;-80
2022/05/21 10:17:00;;;;;;;7.57;1.65;;;18.50;54.80;;;;;;5022191;28;20421;-79
2022/05/21 10:19:40;;;;;;;8.85;1.85;;;18.30;51.40;;;;;;5027977;28;20037;-79
2022/05/21 10:22:30;;;;;;;8.90;2.05;;;18.40;52.00;;;;;;5017872;28;20045;-79
2022/05/21 10:25:14;;;;;;;7.60;1.85;;;18.00;56.60;;;;;;5020633;28;20045;-80
2022/05/21 10:28:03;;;;;;;6.10;1.33;;;17.70;65.30;;;;;;5022901;28;20042;-80
2022/05/21 10:30:59;;;;;;;10.00;2.10;;;18.00;60.50;;;;;;5024213;28;20037;-80
2022/05/21 10:33:35;;;;;;;3.63;1.38;;;18.30;62.40;;;;;;5016609;28;20038;-80
2022/05/21 10:36:28;;;;;;;6.72;1.50;;;18.20;55.40;;;;;;5030211;28;20103;-81
2022/05/21 10:39:23;;;;;;;10.20;2.13;;;18.40;52.80;;;;;;5025419;28;20053;-75
2022/05/21 10:42:08;;;;;;;10.02;1.80;;;18.50;54.30;;;;;;5024121;28;20125;-78
2022/05/21 10:45:02;;;;;;;6.90;1.70;;;18.50;52.00;;;;;;5023956;28;20706;-84
2022/05/21 10:47:55;;;;;;;7.88;1.38;;;18.50;49.60;;;;;;5021683;28;20053;-83
2022/05/21 10:50:28;;;;;;;8.75;2.15;;;18.60;58.30;;;;;;5019839;28;20470;-82
2022/05/21 10:53:20;;;;;;;11.27;2.65;;;18.70;39.40;;;;;;5021696;28;20045;-85
2022/05/21 10:56:17;;;;;;;8.73;2.33;;;18.50;48.80;;;;;;5021557;28;20111;-87
2022/05/21 10:59:07;;;;;;;10.55;2.33;;;18.20;52.90;;;;;;5026419;28;20057;-87
2022/05/21 11:01:35;;;;;;;10.68;2.25;;;17.90;56.70;;;;;;5026304;28;20136;-87
2022/05/21 11:04:18;;;;;;;7.32;2.15;;;18.00;63.70;;;;;;5024512;28;20490;-88
2022/05/21 11:07:22;;;;;;;8.65;2.08;;;18.60;63.00;;;;;;5027556;28;20052;-86
2022/05/21 11:10:12;;;;;;;6.55;1.42;;;19.40;63.60;;;;;;5003831;28;20517;-83
2022/05/21 11:12:58;;;;;;;5.32;1.48;;;20.30;30.00;;;;;;5020069;28;20053;-86
2022/05/21 11:15:48;;;;;;;7.68;1.42;;;20.80;24.20;;;;;;5020434;28;20050;-88
2022/05/21 11:18:41;;;;;;;5.95;1.55;;;21.20;18.10;;;;;;5021039;28;20038;-86
2022/05/21 11:21:17;;;;;;;8.07;1.90;;;21.50;14.90;;;;;;5026679;28;20734;-88
2022/05/21 11:23:49;;;;;;;8.43;1.50;;;21.60;10.80;;;;;;5023243;28;20088;-88
2022/05/21 11:26:34;;;;;;;5.22;1.55;;;21.80;9.60;;;;;;5021946;28;20125;-88
2022/05/21 11:29:15;;;;;;;8.23;1.50;;;20.90;5.00;;;;;;5025158;28;20057;-88
2022/05/21 11:37:25;;;;;;;11.55;2.30;;;22.10;3.60;;;;;;5032034;28;20053;-87
2022/05/21 11:39:53;;;;;;;8.88;1.40;;;21.80;6.10;;;;;;5031084;28;20083;-86
2022/05/21 11:42:27;;;;;;;9.80;2.38;;;22.10;2.20;;;;;;5030990;28;20033;-86
2022/05/21 11:44:55;;;;;;;14.57;1.98;;;22.30;1.90;;;;;;5030786;28;20513;-86
2022/05/21 11:47:21;;;;;;;8.43;1.92;;;22.70;1.00;;;;;;5031667;28;20045;-88
2022/05/21 11:50:14;;;;;;;7.88;2.25;;;22.90;2.90;;;;;;5025847;28;20048;-87
2022/05/21 11:52:39;;;;;;;9.18;1.77;;;21.60;1.00;;;;;;5017942;28;20049;-87
2022/05/21 11:55:09;;;;;;;7.03;1.30;;;21.00;1.10;;;;;;5013122;28;20054;-86
2022/05/21 11:57:53;;;;;;;9.20;1.70;;;21.10;6.50;;;;;;5013076;28;20442;-83
2022/05/21 12:00:22;;;;;;;9.07;2.08;;;22.00;5.20;;;;;;5022428;28;20063;-85
2022/05/21 12:02:56;;;;;;;6.40;1.42;;;22.50;1.00;;;;;;5032690;28;20042;-83
2022/05/21 12:05:38;;;;;;;4.72;1.23;;;22.70;2.30;;;;;;5027803;28;20171;-84
2022/05/21 12:08:24;;;;;;;9.48;1.42;;;23.50;1.00;;;;;;5026589;28;20059;-84
2022/05/21 12:11:06;;;;;;;4.78;1.40;;;23.90;1.00;;;;;;5030632;28;20366;-82
2022/05/21 12:13:35;;;;;;;8.60;1.80;;;23.60;1.00;;;;;;5023340;28;20235;-82
2022/05/21 12:16:22;;;;;;;6.25;1.48;;;22.60;1.00;;;;;;5022570;28;20068;-82
2022/05/21 12:18:55;;;;;;;8.73;1.65;;;22.00;1.00;;;;;;5021333;28;20230;-81
2022/05/21 12:21:27;;;;;;;6.65;1.60;;;21.30;1.00;;;;;;5013591;28;20084;-83
2022/05/21 12:23:56;;;;;;;8.27;2.20;;;21.80;1.00;;;;;;5036652;28;20636;-83
2022/05/21 12:26:33;;;;;;;7.53;1.83;;;21.30;1.00;;;;;;5037361;28;20065;-82
2022/05/21 12:29:24;;;;;;;9.00;1.63;;;20.70;1.00;;;;;;5037016;28;20485;-81
2022/05/21 12:32:00;;;;;;;8.23;2.03;;;20.50;1.00;;;;;;5034072;28;20525;-82
2022/05/21 12:35:09;;;;;;;6.80;1.35;;;20.40;1.00;;;;;;5035724;28;20095;-83
2022/05/21 12:37:50;;;;;;;8.80;1.50;;;20.10;3.80;;;;;;5035570;28;20044;-83
2022/05/21 12:40:50;;;;;;;11.88;3.63;;;20.10;5.40;;;;;;5036048;28;20124;-83
2022/05/21 12:43:16;;;;;;;8.63;1.73;;;21.60;1.00;;;;;;5036737;28;20052;-83
2022/05/21 12:45:50;;;;;;;11.68;1.90;;;22.40;1.00;;;;;;5036650;28;20037;-83
2022/05/21 12:48:31;;;;;;;8.27;1.98;;;22.10;1.00;;;;;;5036595;28;20069;-83
2022/05/21 12:51:00;;;;;;;7.82;1.60;;;21.30;1.00;;;;;;5036790;28;20041;-83
2022/05/21 12:53:36;;;;;;;6.72;1.92;;;20.10;3.60;;;;;;5036212;28;20486;-83
2022/05/21 12:56:26;;;;;;;7.07;1.92;;;21.20;4.50;;;;;;5036633;28;20045;-82
2022/05/21 12:59:27;;;;;;;10.93;2.00;;;22.30;1.00;;;;;;5032103;28;20058;-83
2022/05/21 13:02:13;;;;;;;9.40;1.45;;;23.10;1.00;;;;;;5036192;28;20061;-83
2022/05/21 13:04:45;;;;;;;14.40;2.33;;;23.20;1.00;;;;;;5036443;28;20490;-83
2022/05/21 13:07:36;;;;;;;8.18;1.85;;;22.00;1.00;;;;;;5036323;28;20060;-83
2022/05/21 13:10:23;;;;;;;9.15;1.83;;;21.20;1.00;;;;;;5031277;28;20476;-83
2022/05/21 13:12:50;;;;;;;;;;;20.60;1.00;;;;;;5036532;28;20120;-83
2022/05/21 13:15:30;;;;;;;10.43;1.77;;;20.20;1.00;;;;;;5036020;28;19960;-83
2022/05/21 13:18:51;;;;;;;8.73;1.98;;;20.30;1.00;;;;;;5036229;28;20080;-83
2022/05/21 13:21:26;;;;;;;8.85;1.48;;;20.50;1.50;;;;;;4994566;28;20050;-83
2022/05/21 13:24:15;;;;;;;6.97;1.52;;;20.40;1.40;;;;;;4995563;28;20089;-84
2022/05/21 13:26:41;;;;;;;6.25;1.55;;;20.20;1.00;;;;;;5028612;28;20108;-83
2022/05/21 13:29:26;;;;;;;9.27;1.40;;;20.30;3.00;;;;;;5037060;28;20041;-83
2022/05/21 13:31:52;;;;;;;8.23;1.20;;;20.80;1.00;;;;;;5038002;28;20045;-83